Time;durP1;ratioP1;P1;durP2;ratioP2;P2;SDS_P1;SDS_P2;PMS_P1;PMS_P2;Temp;Humidity;BMP_temperature;BMP_pressure;BME280_temperature;BME280_humidity;BME280_pressure;Samples;Min_cycle;Max_cycle;Signal;HPM_P1;HPM_P2
2022/12/25 00:00:31;;;;;;;;;;;;;;;6.31;100.00;96877.34;4962359;28;19918;-68
2022/12/25 00:02:57;;;;;;;;;;;;;;;6.29;100.00;96876.91;4962600;28;19944;-69
2022/12/25 00:05:22;;;;;;;;;;;;;;;6.27;100.00;96871.00;4957526;28;20609;-70
2022/12/25 00:07:47;;;;;;;;;;;;;;;6.24;100.00;96871.66;4960656;28;20631;-67
2022/12/25 00:10:13;;;;;;;;;;;;;;;6.19;100.00;96872.66;4977115;28;20283;-69
2022/12/25 00:12:38;;;;;;;;;;;;;;;6.17;100.00;96866.75;4982471;28;20421;-68
2022/12/25 00:15:04;;;;;;;;;;;;;;;6.15;100.00;96868.22;4978825;28;19914;-69
2022/12/25 00:17:30;;;;;;;;;;;;;;;6.20;100.00;96866.09;4981251;28;19921;-68
2022/12/25 00:19:55;;;;;;;;;;;;;;;6.17;100.00;96864.03;4982099;28;19921;-68
2022/12/25 00:22:21;;;;;;;;;;;;;;;6.19;100.00;96872.66;4981026;28;20410;-69
2022/12/25 00:24:46;;;;;;;;;;;;;;;6.27;100.00;96876.44;4966439;28;19918;-69
2022/12/25 00:27:12;;;;;;;;;;;;;;;6.41;100.00;96871.50;4959285;28;19926;-69
2022/12/25 00:29:37;;;;;;;;;;;;;;;6.47;100.00;96874.81;4966642;28;20356;-68
2022/12/25 00:32:03;;;;;;;;;;;;;;;6.47;100.00;96869.38;4963657;28;20462;-69
2022/12/25 00:34:29;;;;;;;;;;;;;;;6.49;100.00;96872.53;4965762;28;19918;-69
2022/12/25 00:36:54;;;;;;;;;;;;;;;6.47;100.00;96864.72;4971975;28;19918;-68
2022/12/25 00:39:19;;;;;;;;;;;;;;;6.47;100.00;96856.56;4966591;28;19937;-70
2022/12/25 00:44:29;;;;;;;;;;;;;;;6.58;100.00;96859.63;4966689;28;19918;-69
2022/12/25 00:46:54;;;;;;;;;;;;;;;6.54;100.00;96855.22;4965012;28;19921;-68
2022/12/25 00:49:20;;;;;;;;;;;;;;;6.56;100.00;96863.84;4964459;28;19914;-69
2022/12/25 00:51:47;;;;;;;;;;;;;;;6.58;100.00;96856.13;4985649;28;20285;-69
2022/12/25 00:54:12;;;;;;;;;;;;;;;6.50;100.00;96855.88;4980170;28;20028;-69
2022/12/25 00:56:38;;;;;;;;;;;;;;;6.54;100.00;96856.00;4984508;28;19957;-68
2022/12/25 00:59:04;;;;;;;;;;;;;;;6.52;100.00;96861.00;4997724;28;19913;-69
2022/12/25 01:01:29;;;;;;;;;;;;;;;6.47;100.00;96858.47;4990046;28;19951;-69
2022/12/25 01:03:55;;;;;;;;;;;;;;;6.45;100.00;96852.59;4999873;28;19914;-69
2022/12/25 01:06:20;;;;;;;;;;;;;;;6.32;100.00;96846.31;4978252;28;19913;-68
2022/12/25 01:11:30;;;;;;;;;;;;;;;6.10;100.00;96831.16;4965245;28;20102;-69
2022/12/25 01:13:55;;;;;;;;;;;;;;;6.16;100.00;96845.31;4963585;28;20068;-68
2022/12/25 01:16:21;;;;;;;;;;;;;;;6.21;100.00;96845.13;4959533;28;19957;-69
2022/12/25 01:18:46;;;;;;;;;;;;;;;6.21;100.00;96854.09;4964786;28;19920;-68
2022/12/25 01:21:15;;;;;;;;;;;;;;;6.23;100.00;96846.41;4960929;28;19929;-68
2022/12/25 01:23:40;;;;;;;;;;;;;;;6.07;100.00;96843.50;4977033;28;20278;-68
2022/12/25 01:26:06;;;;;;;;;;;;;;;6.02;100.00;96845.63;5021655;28;19921;-68
2022/12/25 01:28:32;;;;;;;;;;;;;;;6.04;100.00;96854.25;4985108;28;19914;-68
2022/12/25 01:30:57;;;;;;;;;;;;;;;6.03;100.00;96850.75;4984585;28;20367;-69
2022/12/25 01:33:23;;;;;;;;;;;;;;;6.04;100.00;96852.31;4979543;28;20687;-70
2022/12/25 01:35:48;;;;;;;;;;;;;;;6.08;100.00;96864.09;4984157;28;19913;-69
2022/12/25 01:38:13;;;;;;;;;;;;;;;6.12;100.00;96853.34;4980722;28;19917;-69
2022/12/25 01:40:39;;;;;;;;;;;;;;;6.13;100.00;96844.88;4984557;28;19929;-68
2022/12/25 01:43:11;;;;;;;;;;;;;;;6.15;100.00;96849.19;4979252;28;19975;-68
2022/12/25 01:45:39;;;;;;;;;;;;;;;6.09;100.00;96835.00;4982604;28;20060;-69
2022/12/25 01:48:06;;;;;;;;;;;;;;;6.01;100.00;96827.72;4979514;28;19921;-68
2022/12/25 01:50:33;;;;;;;;;;;;;;;5.99;100.00;96840.84;4971521;28;19914;-69
2022/12/25 01:52:58;;;;;;;;;;;;;;;6.01;100.00;96831.22;4965194;28;19918;-68
2022/12/25 01:55:25;;;;;;;;;;;;;;;6.03;100.00;96831.69;4960100;28;19914;-72
2022/12/25 01:57:50;;;;;;;;;;;;;;;6.01;100.00;96825.78;4964926;28;19925;-68
2022/12/25 02:00:15;;;;;;;;;;;;;;;6.04;100.00;96825.13;4960522;28;19918;-69
2022/12/25 02:02:43;;;;;;;;;;;;;;;6.07;100.00;96821.75;4964805;28;19973;-69
2022/12/25 02:05:26;;;;;;;;;;;;;;;6.15;100.00;96824.72;4960299;28;19960;-69
2022/12/25 02:07:52;;;;;;;;;;;;;;;6.23;100.00;96834.69;4963852;28;20335;-69
2022/12/25 02:10:18;;;;;;;;;;;;;;;6.20;100.00;96824.50;4958435;28;19914;-69
2022/12/25 02:12:44;;;;;;;;;;;;;;;6.23;100.00;96819.19;4963334;28;19914;-69
2022/12/25 02:15:12;;;;;;;;;;;;;;;6.30;100.00;96821.34;4959313;28;19921;-69
2022/12/25 02:17:47;;;;;;;;;;;;;;;6.37;100.00;96818.88;4963614;28;20001;-69
2022/12/25 02:20:23;;;;;;;;;;;;;;;6.42;100.00;96820.59;4959390;28;19922;-69
2022/12/25 02:23:14;;;;;;;;;;;;;;;6.49;100.00;96807.25;4965302;28;20049;-70
2022/12/25 02:25:55;;;;;;;;;;;;;;;6.58;100.00;96809.88;4979700;28;20294;-69
2022/12/25 02:28:20;;;;;;;;;;;;;;;6.64;100.00;96822.91;4959822;28;20019;-69
2022/12/25 02:30:51;;;;;;;;;;;;;;;6.66;100.00;96820.66;4963593;28;19986;-69
2022/12/25 02:36:07;;;;;;;;;;;;;;;6.61;100.00;96820.88;4957756;28;20290;-70
2022/12/25 02:38:37;;;;;;;;;;;;;;;6.57;100.00;96825.41;4964415;28;19914;-69
2022/12/25 02:41:06;;;;;;;;;;;;;;;6.63;100.00;96831.44;4975515;28;19964;-70
2022/12/25 03:08:33;;;;;;;;;;;;;;;6.91;100.00;96842.44;4984966;28;19936;-69
2022/12/25 03:13:48;;;;;;;;;;;;;;;6.58;100.00;96837.88;4971549;28;20029;-69
2022/12/25 03:18:57;;;;;;;;;;;;;;;6.20;100.00;96819.84;4986895;28;19914;-69
2022/12/25 03:26:54;;;;;;;;;;;;;;;5.89;100.00;96796.59;4982612;28;19921;-70
2022/12/25 03:32:22;;;;;;;;;;;;;;;6.06;100.00;96790.22;4977961;28;20382;-70
2022/12/25 03:35:22;;;;;;;;;;;;;;;6.07;100.00;96794.56;4982113;28;19921;-70
2022/12/25 03:44:06;;;;;;;;;;;;;;;6.01;100.00;96779.56;4982733;28;20538;-69
2022/12/25 04:38:13;;;;;;;;;;;;;;;6.02;100.00;96789.31;4980641;28;19917;-69
2022/12/25 04:40:39;;;;;;;;;;;;;;;6.00;100.00;96780.69;4983284;28;20016;-69
2022/12/25 04:43:04;;;;;;;;;;;;;;;5.91;100.00;96793.56;4980606;28;20346;-69
2022/12/25 04:45:29;;;;;;;;;;;;;;;5.88;100.00;96803.16;4993553;28;19968;-69
2022/12/25 04:47:57;;;;;;;;;;;;;;;5.85;100.00;96801.13;4997524;28;19995;-69
2022/12/25 04:50:22;;;;;;;;;;;;;;;5.90;100.00;96792.75;4972763;28;19925;-69
2022/12/25 04:52:48;;;;;;;;;;;;;;;6.03;100.00;96801.78;4985078;28;19917;-69
2022/12/25 04:55:13;;;;;;;;;;;;;;;6.13;100.00;96806.78;4980220;28;20607;-69
2022/12/25 04:57:39;;;;;;;;;;;;;;;6.24;100.00;96799.00;4984427;28;19913;-68
2022/12/25 05:00:04;;;;;;;;;;;;;;;6.28;100.00;96799.13;4979026;28;19914;-69
2022/12/25 05:02:30;;;;;;;;;;;;;;;6.31;100.00;96798.47;4984604;28;19913;-68
2022/12/25 05:04:56;;;;;;;;;;;;;;;6.29;100.00;96806.19;4984658;28;19968;-68
2022/12/25 05:07:21;;;;;;;;;;;;;;;6.25;100.00;96808.78;4977555;28;19921;-69
2022/12/25 05:09:46;;;;;;;;;;;;;;;6.21;100.00;96818.75;4984026;28;19949;-69
2022/12/25 05:12:12;;;;;;;;;;;;;;;6.26;100.00;96813.06;4979615;28;19921;-68
2022/12/25 05:14:38;;;;;;;;;;;;;;;6.23;100.00;96810.22;4984151;28;20000;-69
2022/12/25 05:17:04;;;;;;;;;;;;;;;6.12;100.00;96794.34;4980138;28;19960;-70
2022/12/25 05:19:30;;;;;;;;;;;;;;;6.02;100.00;96802.13;4983647;28;19918;-69
2022/12/25 05:21:55;;;;;;;;;;;;;;;5.73;100.00;96787.47;4983643;28;20016;-69
2022/12/25 05:24:24;;;;;;;;;;;;;;;5.52;100.00;96796.41;4966696;28;20615;-69
2022/12/25 05:26:49;;;;;;;;;;;;;;;5.47;100.00;96793.88;4964205;28;19918;-69
2022/12/25 05:29:15;;;;;;;;;;;;;;;5.41;100.00;96795.22;4960581;28;19972;-69
2022/12/25 05:31:40;;;;;;;;;;;;;;;5.41;100.00;96789.00;4947073;28;19988;-69
2022/12/25 05:34:05;;;;;;;;;;;;;;;5.46;100.00;96786.88;4960115;28;19921;-67
2022/12/25 05:36:31;;;;;;;;;;;;;;;5.54;100.00;96780.56;4964299;28;20367;-70
2022/12/25 05:38:56;;;;;;;;;;;;;;;5.72;100.00;96783.16;4963580;28;19956;-70
2022/12/25 05:41:22;;;;;;;;;;;;;;;5.81;100.00;96780.38;4967559;28;20307;-70
2022/12/25 05:43:47;;;;;;;;;;;;;;;5.88;100.00;96773.25;4973458;28;19918;-70
2022/12/25 05:46:13;;;;;;;;;;;;;;;5.99;100.00;96776.38;4963577;28;20511;-70
2022/12/25 05:48:38;;;;;;;;;;;;;;;6.04;100.00;96769.94;4966473;28;19921;-70
2022/12/25 05:51:08;;;;;;;;;;;;;;;5.97;100.00;96764.25;4976148;28;20000;-70
2022/12/25 05:53:34;;;;;;;;;;;;;;;5.80;100.00;96763.28;4984168;28;20029;-67
2022/12/25 05:56:01;;;;;;;;;;;;;;;5.73;100.00;96758.38;4983964;28;19956;-68
2022/12/25 05:58:26;;;;;;;;;;;;;;;5.75;100.00;96761.53;4981570;28;19920;-70
2022/12/25 06:00:52;;;;;;;;;;;;;;;5.77;100.00;96763.94;4985851;28;19917;-68
2022/12/25 06:03:17;;;;;;;;;;;;;;;5.66;100.00;96749.16;4978872;28;19968;-68
2022/12/25 06:05:42;;;;;;;;;;;;;;;5.61;100.00;96752.88;4984852;28;19976;-68
2022/12/25 06:08:08;;;;;;;;;;;;;;;5.59;100.00;96741.53;4980817;28;19918;-69
2022/12/25 06:10:33;;;;;;;;;;;;;;;5.57;100.00;96741.09;4982190;28;19925;-68
2022/12/25 06:12:59;;;;;;;;;;;;;;;5.52;100.00;96742.06;4986278;28;19913;-70
2022/12/25 06:15:25;;;;;;;;;;;;;;;5.59;100.00;96741.53;4980846;28;20073;-71
2022/12/25 06:17:50;;;;;;;;;;;;;;;5.65;100.00;96733.97;5000111;28;20012;-70
2022/12/25 06:20:15;;;;;;;;;;;;;;;5.62;100.00;96740.88;4961549;28;19997;-70
2022/12/25 06:22:41;;;;;;;;;;;;;;;5.59;100.00;96743.47;4984199;28;19928;-70
2022/12/25 06:25:07;;;;;;;;;;;;;;;5.57;100.00;96741.09;4959755;28;20352;-68
2022/12/25 06:27:32;;;;;;;;;;;;;;;5.53;100.00;96732.03;4962290;28;20017;-70
2022/12/25 06:29:57;;;;;;;;;;;;;;;5.54;100.00;96736.31;4963340;28;19965;-70
2022/12/25 06:32:23;;;;;;;;;;;;;;;5.53;100.00;96732.81;4959077;28;19969;-70
2022/12/25 06:34:48;;;;;;;;;;;;;;;5.53;100.00;96732.81;4963698;28;19925;-69
2022/12/25 06:37:14;;;;;;;;;;;;;;;5.51;100.00;96734.25;4957593;28;19965;-68
2022/12/25 06:39:39;;;;;;;;;;;;;;;5.48;100.00;96724.06;4963509;28;20400;-68
2022/12/25 06:42:04;;;;;;;;;;;;;;;5.45;100.00;96730.16;4958500;28;19925;-69
2022/12/25 06:44:30;;;;;;;;;;;;;;;5.39;100.00;96726.06;4963457;28;19914;-69
2022/12/25 06:46:55;;;;;;;;;;;;;;;5.38;100.00;96722.53;4963031;28;20012;-69
2022/12/25 06:49:20;;;;;;;;;;;;;;;5.42;100.00;96719.94;4966544;28;19918;-68
2022/12/25 06:51:46;;;;;;;;;;;;;;;5.45;100.00;96724.72;4963433;28;19914;-69
2022/12/25 06:54:11;;;;;;;;;;;;;;;5.46;100.00;96718.19;4958331;28;20272;-69
2022/12/25 06:56:37;;;;;;;;;;;;;;;5.47;100.00;96712.38;4961585;28;19913;-69
2022/12/25 06:59:04;;;;;;;;;;;;;;;5.44;100.00;96713.06;4961409;28;20033;-68
2022/12/25 07:01:32;;;;;;;;;;;;;;;5.41;100.00;96713.72;4962868;28;19922;-69
2022/12/25 07:04:21;;;;;;;;;;;;;;;5.36;100.00;96703.84;4963455;28;19920;-69
2022/12/25 07:06:46;;;;;;;;;;;;;;;5.30;100.00;96707.13;4950789;28;19918;-69
2022/12/25 07:09:12;;;;;;;;;;;;;;;5.30;100.00;96699.75;4958291;28;20283;-69
2022/12/25 07:11:37;;;;;;;;;;;;;;;5.31;100.00;96709.50;4960978;28;19920;-69
2022/12/25 07:14:02;;;;;;;;;;;;;;;5.20;100.00;96705.59;4961474;28;20294;-69
2022/12/25 07:16:28;;;;;;;;;;;;;;;5.16;100.00;96704.66;4959872;28;19914;-70
2022/12/25 07:18:53;;;;;;;;;;;;;;;4.99;100.00;96702.88;4962135;28;20454;-69
2022/12/25 07:21:19;;;;;;;;;;;;;;;4.94;100.00;96709.28;4958010;28;19918;-69
2022/12/25 07:23:46;;;;;;;;;;;;;;;4.93;100.00;96707.72;4970639;28;19921;-69
2022/12/25 07:26:11;;;;;;;;;;;;;;;4.98;100.00;96717.56;4976868;28;20310;-70
2022/12/25 07:28:37;;;;;;;;;;;;;;;4.98;100.00;96723.00;4983070;28;19992;-70
2022/12/25 07:31:03;;;;;;;;;;;;;;;5.13;100.00;96722.44;4980813;28;19960;-70
2022/12/25 07:33:29;;;;;;;;;;;;;;;5.15;100.00;96717.44;4981936;28;19953;-70
2022/12/25 07:35:54;;;;;;;;;;;;;;;5.30;100.00;96715.28;4982375;28;19960;-68
2022/12/25 07:38:20;;;;;;;;;;;;;;;5.25;100.00;96724.41;4982127;28;19967;-68
2022/12/25 07:40:45;;;;;;;;;;;;;;;5.33;100.00;96720.84;4986715;28;20465;-69
2022/12/25 07:43:11;;;;;;;;;;;;;;;5.61;100.00;96722.97;4988327;28;19992;-68
2022/12/25 07:45:36;;;;;;;;;;;;;;;5.91;100.00;96717.44;4997579;28;20075;-70
2022/12/25 07:48:02;;;;;;;;;;;;;;;6.27;100.00;96715.97;4986208;28;19979;-69
2022/12/25 07:50:27;;;;;;;;;;;;;;;7.01;100.00;96714.03;4974644;28;19921;-69
2022/12/25 07:52:52;;;;;;;;;;;;;;;7.28;100.00;96709.75;4985783;28;19913;-69
2022/12/25 07:55:18;;;;;;;;;;;;;;;7.31;100.00;96704.75;4995732;28;20322;-69
2022/12/25 07:57:43;;;;;;;;;;;;;;;7.45;100.00;96702.44;4985335;28;19920;-69
2022/12/25 08:00:08;;;;;;;;;;;;;;;7.43;100.00;96694.59;4963654;28;19936;-70
2022/12/25 08:05:05;;;;;;;;;;;;;;;7.61;100.00;96694.31;4985818;28;20298;-66
2022/12/25 08:07:30;;;;;;;;;;;;;;;7.68;100.00;96701.91;4995962;28;19917;-66
2022/12/25 08:09:56;;;;;;;;;;;;;;;7.98;100.00;96703.13;5006217;28;19917;-66
2022/12/25 08:12:21;;;;;;;;;;;;;;;8.25;100.00;96711.63;4999098;28;19921;-66
2022/12/25 08:14:46;;;;;;;;;;;;;;;8.69;100.00;96708.81;5007561;28;19936;-66
2022/12/25 08:17:11;;;;;;;;;;;;;;;8.94;100.00;96712.13;4998735;28;19917;-66
2022/12/25 08:19:37;;;;;;;;;;;;;;;8.95;100.00;96707.47;5004703;28;19989;-66
2022/12/25 08:22:03;;;;;;;;;;;;;;;8.81;100.00;96707.91;4996632;28;19928;-66
2022/12/25 08:24:28;;;;;;;;;;;;;;;9.64;100.00;96704.25;4965481;28;20461;-66
2022/12/25 08:26:53;;;;;;;;;;;;;;;9.89;100.00;96710.97;4984782;28;20008;-67
2022/12/25 08:29:19;;;;;;;;;;;;;;;10.22;100.00;96695.16;4994488;28;20533;-67
2022/12/25 08:31:44;;;;;;;;;;;;;;;10.55;100.00;96697.28;4998968;28;19917;-66
2022/12/25 08:34:09;;;;;;;;;;;;;;;10.34;95.91;96703.22;4981113;28;20397;-66
2022/12/25 08:36:35;;;;;;;;;;;;;;;10.18;97.27;96711.50;4984890;28;20056;-65
2022/12/25 08:39:00;;;;;;;;;;;;;;;10.35;100.00;96699.31;4984704;28;20358;-66
2022/12/25 08:41:26;;;;;;;;;;;;;;;10.54;100.00;96697.69;4980490;28;19928;-66
2022/12/25 08:43:51;;;;;;;;;;;;;;;10.14;96.76;96713.41;4985381;28;19914;-66
2022/12/25 08:46:17;;;;;;;;;;;;;;;10.68;99.36;96708.88;4980358;28;19914;-66
2022/12/25 08:48:45;;;;;;;;;;;;;;;10.80;97.17;96702.38;4991485;28;19913;-66
2022/12/25 08:51:14;;;;;;;;;;;;;;;11.52;92.89;96708.88;4999639;28;20247;-67
2022/12/25 08:53:41;;;;;;;;;;;;;;;10.97;95.13;96707.34;5005236;28;20011;-67
2022/12/25 08:56:06;;;;;;;;;;;;;;;11.39;98.79;96716.56;4998874;28;19917;-66
2022/12/25 08:58:32;;;;;;;;;;;;;;;10.69;98.55;96724.91;5004601;28;19913;-67
2022/12/25 09:00:57;;;;;;;;;;;;;;;10.61;95.85;96717.75;5004335;28;19921;-66
2022/12/25 09:03:23;;;;;;;;;;;;;;;11.22;99.98;96715.94;4999547;28;20390;-65
2022/12/25 09:05:48;;;;;;;;;;;;;;;11.28;100.00;96722.66;5008560;28;19913;-65
2022/12/25 09:08:14;;;;;;;;;;;;;;;11.37;95.00;96725.16;5012488;28;19913;-65
2022/12/25 09:10:40;;;;;;;;;;;;;;;11.94;91.90;96724.28;5006765;28;19917;-66
2022/12/25 09:13:05;;;;;;;;;;;;;;;12.92;85.77;96724.06;4999557;28;20287;-65
2022/12/25 09:15:31;;;;;;;;;;;;;;;13.64;81.78;96724.53;5004032;28;19924;-65
2022/12/25 09:17:56;;;;;;;;;;;;;;;13.71;79.43;96721.81;5004299;28;20336;-66
2022/12/25 09:20:21;;;;;;;;;;;;;;;14.63;76.04;96739.00;5013779;28;19955;-65
2022/12/25 09:22:46;;;;;;;;;;;;;;;14.95;72.99;96739.00;5003911;28;19917;-65
2022/12/25 09:25:12;;;;;;;;;;;;;;;14.87;70.88;96740.97;4979670;28;19913;-65
2022/12/25 09:27:37;;;;;;;;;;;;;;;14.64;71.56;96721.25;4984258;28;19924;-66
2022/12/25 09:30:03;;;;;;;;;;;;;;;14.29;73.77;96723.53;4982376;28;19956;-66
2022/12/25 09:32:29;;;;;;;;;;;;;;;14.38;73.33;96714.91;4994570;28;19914;-66
2022/12/25 09:34:54;;;;;;;;;;;;;;;14.67;71.56;96724.00;5004010;28;19967;-66
2022/12/25 09:37:19;;;;;;;;;;;;;;;14.71;70.06;96722.06;4998046;28;19924;-66
2022/12/25 09:39:45;;;;;;;;;;;;;;;14.31;73.14;96717.66;5004001;28;19956;-67
2022/12/25 09:42:20;;;;;;;;;;;;;;;14.60;70.90;96726.75;4998991;28;19924;-67
2022/12/25 09:44:52;;;;;;;;;;;;;;;15.52;69.08;96727.09;5002937;28;20290;-67
2022/12/25 09:47:24;;;;;;;;;;;;;;;15.46;68.22;96723.16;4997639;28;20366;-67
2022/12/25 09:50:00;;;;;;;;;;;;;;;15.79;67.76;96721.09;4995904;28;20421;-67
2022/12/25 09:52:36;;;;;;;;;;;;;;;15.90;66.60;96727.41;4998163;28;19913;-67
2022/12/25 09:55:04;;;;;;;;;;;;;;;15.86;65.59;96715.56;5003188;28;19917;-66
2022/12/25 09:57:31;;;;;;;;;;;;;;;15.88;66.62;96713.19;5002484;28;19917;-67
2022/12/25 09:59:56;;;;;;;;;;;;;;;15.70;67.23;96707.72;5002658;28;19913;-67
2022/12/25 10:02:22;;;;;;;;;;;;;;;15.55;67.98;96712.50;4999109;28;20285;-65
2022/12/25 10:04:50;;;;;;;;;;;;;;;14.19;73.33;96707.00;5003179;28;19925;-64
2022/12/25 10:07:30;;;;;;;;;;;;;;;14.66;72.61;96716.16;4995774;28;19917;-64
2022/12/25 10:09:55;;;;;;;;;;;;;;;14.78;72.92;96717.72;5001130;28;19917;-65
2022/12/25 10:12:48;;;;;;;;;;;;;;;14.51;74.46;96712.56;4998427;28;20369;-65
2022/12/25 10:15:16;;;;;;;;;;;;;;;14.75;71.40;96705.53;4995298;28;20340;-67
2022/12/25 10:17:44;;;;;;;;;;;;;;;14.40;74.26;96709.78;5002692;28;19914;-67
2022/12/25 10:20:09;;;;;;;;;;;;;;;14.63;74.34;96698.44;4997822;28;20348;-67
2022/12/25 10:22:39;;;;;;;;;;;;;;;13.89;78.43;96699.84;5003315;28;20012;-67
2022/12/25 10:25:05;;;;;;;;;;;;;;;14.51;75.57;96696.03;4979631;28;20544;-65
2022/12/25 10:27:39;;;;;;;;;;;;;;;13.61;79.07;96693.03;4983548;28;19914;-66
2022/12/25 10:30:18;;;;;;;;;;;;;;;13.68;78.92;96687.56;4979260;28;20008;-66
2022/12/25 10:32:44;;;;;;;;;;;;;;;13.65;79.00;96684.78;4995187;28;19914;-66
2022/12/25 10:35:20;;;;;;;;;;;;;;;13.93;80.47;96679.38;4997132;28;20019;-66
2022/12/25 10:37:50;;;;;;;;;;;;;;;13.71;81.38;96677.75;5002377;28;19936;-64
2022/12/25 10:40:18;;;;;;;;;;;;;;;13.88;80.12;96673.47;4997901;28;19924;-65
2022/12/25 10:42:45;;;;;;;;;;;;;;;13.82;79.93;96672.28;5002502;28;19913;-65
2022/12/25 10:45:10;;;;;;;;;;;;;;;13.72;80.38;96666.38;4998606;28;19921;-65
2022/12/25 10:47:37;;;;;;;;;;;;;;;13.72;80.96;96669.13;5003129;28;19975;-67
2022/12/25 10:50:08;;;;;;;;;;;;;;;13.68;80.98;96668.28;4993173;28;20012;-66
2022/12/25 10:52:34;;;;;;;;;;;;;;;13.51;82.71;96669.81;4983154;28;19914;-67
2022/12/25 10:55:09;;;;;;;;;;;;;;;13.37;83.71;96664.25;4982937;28;20353;-66
2022/12/25 10:57:43;;;;;;;;;;;;;;;13.24;83.88;96672.00;4981638;28;19924;-67
2022/12/25 11:00:18;;;;;;;;;;;;;;;12.86;86.95;96670.63;4977925;28;19913;-67
2022/12/25 11:02:44;;;;;;;;;;;;;;;12.91;87.67;96675.72;4983136;28;19920;-66
2022/12/25 11:05:13;;;;;;;;;;;;;;;12.96;87.01;96681.69;4977270;28;20341;-68
2022/12/25 11:07:53;;;;;;;;;;;;;;;12.97;86.10;96679.72;4982195;28;19913;-65
2022/12/25 11:10:27;;;;;;;;;;;;;;;12.63;87.16;96672.41;4978142;28;20370;-66
2022/12/25 11:12:52;;;;;;;;;;;;;;;11.52;97.43;96671.25;4980623;28;20290;-66
2022/12/25 11:15:36;;;;;;;;;;;;;;;12.34;94.63;96651.38;4977764;28;19925;-66
2022/12/25 11:18:16;;;;;;;;;;;;;;;12.22;93.81;96653.22;4980198;28;19935;-65
2022/12/25 11:20:47;;;;;;;;;;;;;;;12.07;92.69;96654.25;4982491;28;19929;-66
2022/12/25 11:23:14;;;;;;;;;;;;;;;12.36;92.84;96638.03;4980629;28;19972;-65
2022/12/25 11:25:40;;;;;;;;;;;;;;;12.55;91.09;96632.31;5002023;28;19924;-66
2022/12/25 11:28:05;;;;;;;;;;;;;;;12.45;91.82;96632.22;4998034;28;19913;-66
2022/12/25 11:30:32;;;;;;;;;;;;;;;12.56;91.63;96646.84;5003087;28;19940;-65
2022/12/25 11:33:05;;;;;;;;;;;;;;;12.38;92.34;96632.94;4986868;28;19913;-67
2022/12/25 11:35:33;;;;;;;;;;;;;;;12.31;92.78;96632.91;4982042;28;20375;-65
2022/12/25 11:37:59;;;;;;;;;;;;;;;12.16;94.31;96634.75;4983054;28;19971;-64
2022/12/25 11:40:28;;;;;;;;;;;;;;;11.58;98.72;96633.34;4977717;28;20358;-64
2022/12/25 11:43:06;;;;;;;;;;;;;;;11.17;100.00;96639.50;4982549;28;20286;-65
2022/12/25 11:45:34;;;;;;;;;;;;;;;10.85;100.00;96636.31;4980478;28;19917;-65
2022/12/25 11:48:04;;;;;;;;;;;;;;;10.84;100.00;96643.75;4981728;28;20029;-65
2022/12/25 11:50:42;;;;;;;;;;;;;;;10.58;100.00;96647.28;4992488;28;19917;-65
2022/12/25 11:53:19;;;;;;;;;;;;;;;10.24;100.00;96646.31;4981052;28;19913;-65
2022/12/25 11:55:48;;;;;;;;;;;;;;;10.20;100.00;96639.97;5002590;28;19917;-65
2022/12/25 11:58:17;;;;;;;;;;;;;;;9.98;100.00;96649.78;4992822;28;20433;-65
2022/12/25 12:00:45;;;;;;;;;;;;;;;9.94;100.00;96645.03;4982328;28;20428;-66
2022/12/25 12:03:32;;;;;;;;;;;;;;;9.92;100.00;96643.78;4991762;28;19964;-65
2022/12/25 12:06:00;;;;;;;;;;;;;;;9.72;100.00;96635.66;5001251;28;19955;-65
2022/12/25 12:08:26;;;;;;;;;;;;;;;9.64;100.00;96622.19;4996273;28;19914;-65
2022/12/25 12:11:14;;;;;;;;;;;;;;;9.65;100.00;96627.31;5001728;28;20376;-66
2022/12/25 12:13:54;;;;;;;;;;;;;;;9.71;100.00;96614.13;5000866;28;19943;-65
2022/12/25 12:16:20;;;;;;;;;;;;;;;9.73;100.00;96615.34;4995200;28;19924;-65
2022/12/25 12:18:45;;;;;;;;;;;;;;;9.41;100.00;96603.78;5002017;28;19917;-65
2022/12/25 12:21:17;;;;;;;;;;;;;;;9.59;100.00;96598.66;4996481;28;19974;-65
2022/12/25 12:23:49;;;;;;;;;;;;;;;9.66;100.00;96598.78;4997777;28;20590;-65
2022/12/25 12:26:36;;;;;;;;;;;;;;;9.60;100.00;96594.78;4982138;28;19920;-65
2022/12/25 12:29:03;;;;;;;;;;;;;;;9.80;100.00;96595.53;4986824;28;19925;-64
2022/12/25 12:31:36;;;;;;;;;;;;;;;9.90;100.00;96596.88;4987414;28;19921;-66
2022/12/25 12:34:02;;;;;;;;;;;;;;;9.83;100.00;96600.28;5004841;28;19959;-65
2022/12/25 12:36:27;;;;;;;;;;;;;;;9.86;100.00;96591.31;5001511;28;20339;-66
2022/12/25 12:38:57;;;;;;;;;;;;;;;9.71;100.00;96600.44;5003395;28;19914;-67
2022/12/25 12:41:24;;;;;;;;;;;;;;;9.61;100.00;96610.03;4998843;28;20388;-66
2022/12/25 12:43:59;;;;;;;;;;;;;;;9.60;100.00;96603.00;5004958;28;20007;-67
2022/12/25 12:46:26;;;;;;;;;;;;;;;9.63;100.00;96607.72;4999855;28;20918;-64
2022/12/25 12:48:53;;;;;;;;;;;;;;;9.80;100.00;96605.69;5005636;28;19944;-65
2022/12/25 12:51:32;;;;;;;;;;;;;;;9.76;100.00;96605.63;4980911;28;20357;-66
2022/12/25 12:54:21;;;;;;;;;;;;;;;9.68;100.00;96610.16;4990808;28;20409;-66
2022/12/25 12:57:13;;;;;;;;;;;;;;;9.53;100.00;96617.31;5004226;28;19959;-65
2022/12/25 12:59:42;;;;;;;;;;;;;;;9.52;100.00;96610.25;4981516;28;20330;-65
2022/12/25 13:02:13;;;;;;;;;;;;;;;9.60;100.00;96610.38;4979603;28;19918;-66
2022/12/25 13:04:46;;;;;;;;;;;;;;;9.44;100.00;96602.28;4989314;28;19976;-65
2022/12/25 13:07:31;;;;;;;;;;;;;;;9.34;100.00;96593.50;4981600;28;20322;-66
2022/12/25 13:09:56;;;;;;;;;;;;;;;9.32;100.00;96587.59;4983523;28;19914;-66
2022/12/25 13:12:22;;;;;;;;;;;;;;;9.46;100.00;96594.53;4980790;28;19929;-66
2022/12/25 13:14:48;;;;;;;;;;;;;;;9.24;100.00;96577.72;4996958;28;19914;-67
2022/12/25 13:17:18;;;;;;;;;;;;;;;8.56;100.00;96579.03;4993431;28;19993;-65
2022/12/25 13:19:44;;;;;;;;;;;;;;;8.64;100.00;96575.28;4987947;28;20310;-66
2022/12/25 13:22:21;;;;;;;;;;;;;;;8.42;100.00;96574.81;4981060;28;19929;-66
2022/12/25 13:24:53;;;;;;;;;;;;;;;8.34;100.00;96575.78;5000575;28;19920;-66
2022/12/25 13:27:22;;;;;;;;;;;;;;;8.68;100.00;96586.28;4998568;28;19964;-68
2022/12/25 13:29:49;;;;;;;;;;;;;;;8.88;100.00;96598.84;5001537;28;19988;-64
2022/12/25 13:32:31;;;;;;;;;;;;;;;8.91;100.00;96597.31;4989022;28;20004;-65
2022/12/25 13:34:57;;;;;;;;;;;;;;;8.81;100.00;96612.34;4984251;28;19914;-65
2022/12/25 13:37:28;;;;;;;;;;;;;;;8.95;100.00;96612.66;4979179;28;20661;-65
2022/12/25 13:39:55;;;;;;;;;;;;;;;8.83;100.00;96614.72;4983487;28;19921;-64
2022/12/25 13:42:31;;;;;;;;;;;;;;;8.65;100.00;96608.88;4978679;28;20017;-65
2022/12/25 13:45:01;;;;;;;;;;;;;;;8.74;100.00;96607.50;4983764;28;19921;-65
2022/12/25 13:47:31;;;;;;;;;;;;;;;8.56;100.00;96609.84;4978515;28;19913;-65
2022/12/25 13:49:57;;;;;;;;;;;;;;;8.36;100.00;96608.97;4983234;28;19914;-65
2022/12/25 13:52:36;;;;;;;;;;;;;;;8.36;100.00;96610.91;4997867;28;20375;-65
2022/12/25 13:55:03;;;;;;;;;;;;;;;8.40;100.00;96589.94;5002012;28;19921;-64
2022/12/25 13:57:31;;;;;;;;;;;;;;;8.46;100.00;96607.66;5000681;28;20380;-65
2022/12/25 13:59:57;;;;;;;;;;;;;;;8.30;100.00;96617.75;5018363;28;19913;-66
2022/12/25 14:03:34;;;;;;;;;;;;;;;8.23;100.00;96615.69;5024736;28;19952;-66
2022/12/25 14:06:01;;;;;;;;;;;;;;;8.32;100.00;96608.09;5017935;28;19944;-66
2022/12/25 14:08:28;;;;;;;;;;;;;;;8.22;100.00;96605.91;5014728;28;19917;-66
2022/12/25 14:10:54;;;;;;;;;;;;;;;8.24;100.00;96614.53;5018433;28;19941;-66
2022/12/25 14:13:21;;;;;;;;;;;;;;;7.96;100.00;96609.97;5014294;28;20371;-66
2022/12/25 14:15:47;;;;;;;;;;;;;;;7.96;100.00;96623.59;5018901;28;20448;-66
2022/12/25 14:18:16;;;;;;;;;;;;;;;7.79;100.00;96619.25;5014252;28;19917;-68
2022/12/25 14:21:01;;;;;;;;;;;;;;;7.53;100.00;96633.38;5019447;28;19965;-66
2022/12/25 14:23:28;;;;;;;;;;;;;;;7.63;100.00;96640.25;5013071;28;20012;-66
2022/12/25 14:25:53;;;;;;;;;;;;;;;7.28;100.00;96647.09;5016971;28;19943;-66
2022/12/25 14:28:21;;;;;;;;;;;;;;;7.22;100.00;96656.66;5012831;28;20437;-65
2022/12/25 14:30:47;;;;;;;;;;;;;;;7.26;100.00;96654.03;5019025;28;19922;-66
2022/12/25 14:33:16;;;;;;;;;;;;;;;7.11;100.00;96639.19;5013062;28;20369;-65
2022/12/25 14:35:42;;;;;;;;;;;;;;;7.09;100.00;96646.94;5017333;28;19921;-66
2022/12/25 14:38:14;;;;;;;;;;;;;;;7.12;100.00;96650.91;5014679;28;20023;-65